sensor_id;sensor_type;location;lat;lon;timestamp;P1;durP1;ratioP1;P2;durP2;ratioP2
21729;SDS011;11027;51.030;13.812;2023-11-22T00:02:23;9.18;;;6.80;;
21729;SDS011;11027;51.030;13.812;2023-11-22T00:04:51;10.18;;;6.72;;
21729;SDS011;11027;51.030;13.812;2023-11-22T00:07:17;9.32;;;6.82;;
21729;SDS011;11027;51.030;13.812;2023-11-22T00:09:42;10.40;;;7.32;;
21729;SDS011;11027;51.030;13.812;2023-11-22T00:12:07;13.68;;;7.10;;
21729;SDS011;11027;51.030;13.812;2023-11-22T00:14:33;12.13;;;7.95;;
21729;SDS011;11027;51.030;13.812;2023-11-22T00:16:59;10.07;;;7.75;;
21729;SDS011;11027;51.030;13.812;2023-11-22T00:19:26;10.55;;;7.75;;
21729;SDS011;11027;51.030;13.812;2023-11-22T00:21:52;14.52;;;8.18;;
21729;SDS011;11027;51.030;13.812;2023-11-22T00:24:17;13.60;;;8.80;;
21729;SDS011;11027;51.030;13.812;2023-11-22T00:26:43;10.77;;;7.93;;
21729;SDS011;11027;51.030;13.812;2023-11-22T00:29:08;11.68;;;8.35;;
21729;SDS011;11027;51.030;13.812;2023-11-22T00:31:34;13.38;;;8.50;;
21729;SDS011;11027;51.030;13.812;2023-11-22T00:33:59;11.93;;;8.73;;
21729;SDS011;11027;51.030;13.812;2023-11-22T00:36:24;12.63;;;9.20;;
21729;SDS011;11027;51.030;13.812;2023-11-22T00:38:49;12.43;;;8.88;;
21729;SDS011;11027;51.030;13.812;2023-11-22T00:41:15;13.10;;;9.52;;
21729;SDS011;11027;51.030;13.812;2023-11-22T00:43:40;11.25;;;8.70;;
21729;SDS011;11027;51.030;13.812;2023-11-22T00:46:06;12.90;;;9.38;;
21729;SDS011;11027;51.030;13.812;2023-11-22T00:48:31;13.15;;;9.85;;
21729;SDS011;11027;51.030;13.812;2023-11-22T00:50:56;13.02;;;10.18;;
21729;SDS011;11027;51.030;13.812;2023-11-22T00:53:22;13.95;;;9.98;;
21729;SDS011;11027;51.030;13.812;2023-11-22T00:55:48;13.23;;;9.68;;
21729;SDS011;11027;51.030;13.812;2023-11-22T00:58:13;13.45;;;9.73;;
21729;SDS011;11027;51.030;13.812;2023-11-22T01:00:38;12.95;;;9.40;;
21729;SDS011;11027;51.030;13.812;2023-11-22T01:03:03;13.65;;;10.00;;
21729;SDS011;11027;51.030;13.812;2023-11-22T01:05:30;14.05;;;10.35;;
21729;SDS011;11027;51.030;13.812;2023-11-22T01:07:55;15.45;;;10.70;;
21729;SDS011;11027;51.030;13.812;2023-11-22T01:10:20;14.70;;;9.90;;
21729;SDS011;11027;51.030;13.812;2023-11-22T01:12:45;15.82;;;10.32;;
21729;SDS011;11027;51.030;13.812;2023-11-22T01:15:11;15.07;;;10.52;;
21729;SDS011;11027;51.030;13.812;2023-11-22T01:17:36;15.43;;;10.57;;
21729;SDS011;11027;51.030;13.812;2023-11-22T01:20:02;15.38;;;11.07;;
21729;SDS011;11027;51.030;13.812;2023-11-22T01:22:28;14.98;;;11.10;;
21729;SDS011;11027;51.030;13.812;2023-11-22T01:24:53;19.30;;;12.38;;
21729;SDS011;11027;51.030;13.812;2023-11-22T01:27:19;15.05;;;10.93;;
21729;SDS011;11027;51.030;13.812;2023-11-22T01:29:44;16.63;;;11.55;;
21729;SDS011;11027;51.030;13.812;2023-11-22T01:32:09;17.35;;;11.30;;
21729;SDS011;11027;51.030;13.812;2023-11-22T01:34:35;16.27;;;11.15;;
21729;SDS011;11027;51.030;13.812;2023-11-22T01:37:00;15.93;;;11.27;;
21729;SDS011;11027;51.030;13.812;2023-11-22T01:39:25;19.38;;;11.80;;
21729;SDS011;11027;51.030;13.812;2023-11-22T01:41:51;18.85;;;12.50;;
21729;SDS011;11027;51.030;13.812;2023-11-22T01:44:17;18.50;;;12.18;;
21729;SDS011;11027;51.030;13.812;2023-11-22T01:46:43;17.45;;;11.80;;
21729;SDS011;11027;51.030;13.812;2023-11-22T01:49:09;17.27;;;11.95;;
21729;SDS011;11027;51.030;13.812;2023-11-22T01:51:35;17.80;;;11.88;;
21729;SDS011;11027;51.030;13.812;2023-11-22T01:54:02;16.88;;;10.73;;
21729;SDS011;11027;51.030;13.812;2023-11-22T01:56:28;15.27;;;11.05;;
21729;SDS011;11027;51.030;13.812;2023-11-22T01:58:54;18.50;;;12.23;;
21729;SDS011;11027;51.030;13.812;2023-11-22T02:01:21;15.60;;;10.98;;
21729;SDS011;11027;51.030;13.812;2023-11-22T02:03:46;17.65;;;11.00;;
21729;SDS011;11027;51.030;13.812;2023-11-22T02:06:17;17.98;;;10.52;;
21729;SDS011;11027;51.030;13.812;2023-11-22T02:08:43;17.38;;;12.13;;
21729;SDS011;11027;51.030;13.812;2023-11-22T02:11:08;18.75;;;11.23;;
21729;SDS011;11027;51.030;13.812;2023-11-22T02:13:34;15.93;;;11.40;;
21729;SDS011;11027;51.030;13.812;2023-11-22T02:15:59;15.48;;;10.77;;
21729;SDS011;11027;51.030;13.812;2023-11-22T02:18:26;15.20;;;10.65;;
21729;SDS011;11027;51.030;13.812;2023-11-22T02:20:52;17.40;;;11.25;;
21729;SDS011;11027;51.030;13.812;2023-11-22T02:23:17;15.77;;;11.30;;
21729;SDS011;11027;51.030;13.812;2023-11-22T02:25:43;17.08;;;10.48;;
21729;SDS011;11027;51.030;13.812;2023-11-22T02:28:08;16.00;;;10.52;;
21729;SDS011;11027;51.030;13.812;2023-11-22T02:30:34;17.67;;;12.27;;
21729;SDS011;11027;51.030;13.812;2023-11-22T02:33:00;17.75;;;11.48;;
21729;SDS011;11027;51.030;13.812;2023-11-22T02:35:25;17.55;;;11.75;;
21729;SDS011;11027;51.030;13.812;2023-11-22T02:37:51;16.65;;;11.68;;
21729;SDS011;11027;51.030;13.812;2023-11-22T02:40:18;20.05;;;12.40;;
21729;SDS011;11027;51.030;13.812;2023-11-22T02:42:45;16.20;;;11.43;;
21729;SDS011;11027;51.030;13.812;2023-11-22T02:45:15;19.00;;;11.85;;
21729;SDS011;11027;51.030;13.812;2023-11-22T02:47:42;18.38;;;11.85;;
21729;SDS011;11027;51.030;13.812;2023-11-22T02:50:09;17.27;;;11.80;;
21729;SDS011;11027;51.030;13.812;2023-11-22T02:52:36;19.75;;;12.57;;
21729;SDS011;11027;51.030;13.812;2023-11-22T02:55:02;19.25;;;12.63;;
21729;SDS011;11027;51.030;13.812;2023-11-22T02:57:28;21.05;;;13.57;;
21729;SDS011;11027;51.030;13.812;2023-11-22T02:59:53;19.90;;;13.02;;
21729;SDS011;11027;51.030;13.812;2023-11-22T03:02:18;22.50;;;13.30;;
21729;SDS011;11027;51.030;13.812;2023-11-22T03:04:43;19.92;;;13.63;;
21729;SDS011;11027;51.030;13.812;2023-11-22T03:07:09;20.77;;;13.35;;
21729;SDS011;11027;51.030;13.812;2023-11-22T03:09:35;20.05;;;13.30;;
21729;SDS011;11027;51.030;13.812;2023-11-22T03:12:01;21.00;;;13.57;;
21729;SDS011;11027;51.030;13.812;2023-11-22T03:14:27;21.23;;;13.30;;
21729;SDS011;11027;51.030;13.812;2023-11-22T03:16:53;23.05;;;14.10;;
21729;SDS011;11027;51.030;13.812;2023-11-22T03:19:18;23.15;;;14.55;;
21729;SDS011;11027;51.030;13.812;2023-11-22T03:21:45;21.30;;;14.02;;
21729;SDS011;11027;51.030;13.812;2023-11-22T03:24:10;21.92;;;13.65;;
21729;SDS011;11027;51.030;13.812;2023-11-22T03:26:36;22.00;;;14.23;;
21729;SDS011;11027;51.030;13.812;2023-11-22T03:29:01;22.27;;;13.63;;
21729;SDS011;11027;51.030;13.812;2023-11-22T03:31:27;20.65;;;13.57;;
21729;SDS011;11027;51.030;13.812;2023-11-22T03:33:56;22.50;;;13.15;;
21729;SDS011;11027;51.030;13.812;2023-11-22T03:36:22;19.13;;;13.18;;
21729;SDS011;11027;51.030;13.812;2023-11-22T03:38:48;24.13;;;14.23;;
21729;SDS011;11027;51.030;13.812;2023-11-22T03:41:14;19.33;;;13.65;;
21729;SDS011;11027;51.030;13.812;2023-11-22T03:43:39;21.13;;;13.43;;
21729;SDS011;11027;51.030;13.812;2023-11-22T03:46:04;22.13;;;13.48;;
21729;SDS011;11027;51.030;13.812;2023-11-22T03:48:30;21.50;;;13.75;;
21729;SDS011;11027;51.030;13.812;2023-11-22T03:50:55;19.92;;;13.07;;
21729;SDS011;11027;51.030;13.812;2023-11-22T03:53:21;19.00;;;13.15;;
21729;SDS011;11027;51.030;13.812;2023-11-22T03:55:48;20.15;;;13.63;;
21729;SDS011;11027;51.030;13.812;2023-11-22T03:58:14;20.17;;;13.95;;
21729;SDS011;11027;51.030;13.812;2023-11-22T04:00:40;22.05;;;13.98;;
21729;SDS011;11027;51.030;13.812;2023-11-22T04:03:05;20.10;;;13.10;;
21729;SDS011;11027;51.030;13.812;2023-11-22T04:05:31;20.38;;;12.50;;
21729;SDS011;11027;51.030;13.812;2023-11-22T04:07:57;20.33;;;13.38;;
21729;SDS011;11027;51.030;13.812;2023-11-22T04:10:22;21.98;;;12.13;;
21729;SDS011;11027;51.030;13.812;2023-11-22T04:12:48;18.75;;;13.02;;
21729;SDS011;11027;51.030;13.812;2023-11-22T04:15:14;17.95;;;12.50;;
21729;SDS011;11027;51.030;13.812;2023-11-22T04:17:40;16.23;;;11.15;;
21729;SDS011;11027;51.030;13.812;2023-11-22T04:20:06;16.77;;;11.45;;
21729;SDS011;11027;51.030;13.812;2023-11-22T04:22:42;17.27;;;12.07;;
21729;SDS011;11027;51.030;13.812;2023-11-22T04:25:10;17.05;;;11.57;;
21729;SDS011;11027;51.030;13.812;2023-11-22T04:27:38;20.95;;;12.30;;
21729;SDS011;11027;51.030;13.812;2023-11-22T04:30:05;19.25;;;11.30;;
21729;SDS011;11027;51.030;13.812;2023-11-22T04:32:33;15.82;;;11.23;;
21729;SDS011;11027;51.030;13.812;2023-11-22T04:34:59;15.23;;;11.27;;
21729;SDS011;11027;51.030;13.812;2023-11-22T04:37:24;13.50;;;10.98;;
21729;SDS011;11027;51.030;13.812;2023-11-22T04:39:51;14.63;;;10.80;;
21729;SDS011;11027;51.030;13.812;2023-11-22T04:42:17;15.15;;;10.70;;
21729;SDS011;11027;51.030;13.812;2023-11-22T04:44:42;14.18;;;10.35;;
21729;SDS011;11027;51.030;13.812;2023-11-22T04:47:08;15.13;;;11.02;;
21729;SDS011;11027;51.030;13.812;2023-11-22T04:49:33;17.55;;;11.20;;
21729;SDS011;11027;51.030;13.812;2023-11-22T04:51:58;15.82;;;11.15;;
21729;SDS011;11027;51.030;13.812;2023-11-22T04:54:24;16.30;;;11.05;;
21729;SDS011;11027;51.030;13.812;2023-11-22T04:56:49;14.93;;;10.75;;
21729;SDS011;11027;51.030;13.812;2023-11-22T04:59:15;16.58;;;11.07;;
21729;SDS011;11027;51.030;13.812;2023-11-22T05:01:40;17.05;;;10.90;;
21729;SDS011;11027;51.030;13.812;2023-11-22T05:04:06;16.10;;;11.15;;
21729;SDS011;11027;51.030;13.812;2023-11-22T05:06:31;17.02;;;11.07;;
21729;SDS011;11027;51.030;13.812;2023-11-22T05:08:56;17.92;;;11.65;;
21729;SDS011;11027;51.030;13.812;2023-11-22T05:11:22;16.40;;;10.93;;
21729;SDS011;11027;51.030;13.812;2023-11-22T05:13:47;15.82;;;11.13;;
21729;SDS011;11027;51.030;13.812;2023-11-22T05:16:12;20.17;;;12.35;;
21729;SDS011;11027;51.030;13.812;2023-11-22T05:18:38;17.52;;;12.90;;
21729;SDS011;11027;51.030;13.812;2023-11-22T05:21:03;18.73;;;12.93;;
21729;SDS011;11027;51.030;13.812;2023-11-22T05:23:29;19.90;;;13.30;;
21729;SDS011;11027;51.030;13.812;2023-11-22T05:25:54;20.30;;;13.90;;
21729;SDS011;11027;51.030;13.812;2023-11-22T05:28:19;21.55;;;13.90;;
21729;SDS011;11027;51.030;13.812;2023-11-22T05:30:45;19.77;;;13.88;;
21729;SDS011;11027;51.030;13.812;2023-11-22T05:33:10;19.95;;;14.13;;
21729;SDS011;11027;51.030;13.812;2023-11-22T05:35:36;20.95;;;14.13;;
21729;SDS011;11027;51.030;13.812;2023-11-22T05:38:01;20.92;;;12.98;;
21729;SDS011;11027;51.030;13.812;2023-11-22T05:40:27;20.08;;;13.70;;
21729;SDS011;11027;51.030;13.812;2023-11-22T05:42:52;23.58;;;15.68;;
21729;SDS011;11027;51.030;13.812;2023-11-22T05:45:17;20.63;;;13.65;;
21729;SDS011;11027;51.030;13.812;2023-11-22T05:47:43;21.95;;;15.23;;
21729;SDS011;11027;51.030;13.812;2023-11-22T05:50:08;21.88;;;14.57;;
21729;SDS011;11027;51.030;13.812;2023-11-22T05:52:34;22.95;;;13.77;;
21729;SDS011;11027;51.030;13.812;2023-11-22T05:54:59;21.67;;;13.88;;
21729;SDS011;11027;51.030;13.812;2023-11-22T05:57:28;22.48;;;15.00;;
21729;SDS011;11027;51.030;13.812;2023-11-22T05:59:53;20.75;;;14.15;;
21729;SDS011;11027;51.030;13.812;2023-11-22T06:02:19;20.67;;;13.88;;
21729;SDS011;11027;51.030;13.812;2023-11-22T06:04:44;22.25;;;14.68;;
21729;SDS011;11027;51.030;13.812;2023-11-22T06:07:09;21.90;;;13.98;;
21729;SDS011;11027;51.030;13.812;2023-11-22T06:09:35;21.45;;;14.20;;
21729;SDS011;11027;51.030;13.812;2023-11-22T06:12:01;21.83;;;13.93;;
21729;SDS011;11027;51.030;13.812;2023-11-22T06:14:26;25.63;;;14.32;;
21729;SDS011;11027;51.030;13.812;2023-11-22T06:16:51;26.90;;;15.13;;
21729;SDS011;11027;51.030;13.812;2023-11-22T06:19:17;22.50;;;14.68;;
21729;SDS011;11027;51.030;13.812;2023-11-22T06:21:42;23.83;;;15.85;;
21729;SDS011;11027;51.030;13.812;2023-11-22T06:24:08;23.30;;;15.68;;
21729;SDS011;11027;51.030;13.812;2023-11-22T06:26:34;23.30;;;15.63;;
21729;SDS011;11027;51.030;13.812;2023-11-22T06:28:59;24.02;;;14.77;;
21729;SDS011;11027;51.030;13.812;2023-11-22T06:31:25;23.58;;;14.77;;
21729;SDS011;11027;51.030;13.812;2023-11-22T06:33:50;22.63;;;14.55;;
21729;SDS011;11027;51.030;13.812;2023-11-22T06:36:17;22.55;;;15.68;;
21729;SDS011;11027;51.030;13.812;2023-11-22T06:38:43;22.85;;;14.90;;
21729;SDS011;11027;51.030;13.812;2023-11-22T06:41:08;23.50;;;14.75;;
21729;SDS011;11027;51.030;13.812;2023-11-22T06:43:34;22.58;;;15.40;;
21729;SDS011;11027;51.030;13.812;2023-11-22T06:45:59;24.83;;;15.57;;
21729;SDS011;11027;51.030;13.812;2023-11-22T06:48:25;25.13;;;15.48;;
21729;SDS011;11027;51.030;13.812;2023-11-22T06:50:51;25.80;;;15.68;;
21729;SDS011;11027;51.030;13.812;2023-11-22T06:53:16;23.98;;;15.00;;
21729;SDS011;11027;51.030;13.812;2023-11-22T06:55:44;23.67;;;15.60;;
21729;SDS011;11027;51.030;13.812;2023-11-22T06:58:10;26.25;;;16.25;;
21729;SDS011;11027;51.030;13.812;2023-11-22T07:00:36;22.17;;;15.30;;
21729;SDS011;11027;51.030;13.812;2023-11-22T07:03:01;22.98;;;15.57;;
21729;SDS011;11027;51.030;13.812;2023-11-22T07:05:26;25.05;;;15.77;;
21729;SDS011;11027;51.030;13.812;2023-11-22T07:07:52;23.80;;;15.88;;
21729;SDS011;11027;51.030;13.812;2023-11-22T07:10:19;24.50;;;16.60;;
21729;SDS011;11027;51.030;13.812;2023-11-22T07:12:45;24.42;;;15.75;;
21729;SDS011;11027;51.030;13.812;2023-11-22T07:15:12;23.98;;;15.82;;
21729;SDS011;11027;51.030;13.812;2023-11-22T07:17:38;23.15;;;15.35;;
21729;SDS011;11027;51.030;13.812;2023-11-22T07:20:05;21.40;;;13.90;;
21729;SDS011;11027;51.030;13.812;2023-11-22T07:22:34;23.27;;;15.00;;
21729;SDS011;11027;51.030;13.812;2023-11-22T07:25:00;23.98;;;15.63;;
21729;SDS011;11027;51.030;13.812;2023-11-22T07:27:28;25.45;;;16.80;;
21729;SDS011;11027;51.030;13.812;2023-11-22T07:29:53;26.40;;;15.95;;
21729;SDS011;11027;51.030;13.812;2023-11-22T07:32:19;23.05;;;15.07;;
21729;SDS011;11027;51.030;13.812;2023-11-22T07:34:47;25.38;;;15.98;;
21729;SDS011;11027;51.030;13.812;2023-11-22T07:37:13;26.23;;;15.52;;
21729;SDS011;11027;51.030;13.812;2023-11-22T07:39:39;22.17;;;14.43;;
21729;SDS011;11027;51.030;13.812;2023-11-22T07:42:05;21.17;;;14.23;;
21729;SDS011;11027;51.030;13.812;2023-11-22T07:44:34;21.05;;;13.35;;
21729;SDS011;11027;51.030;13.812;2023-11-22T07:47:02;21.70;;;13.30;;
21729;SDS011;11027;51.030;13.812;2023-11-22T07:49:28;19.58;;;12.52;;
21729;SDS011;11027;51.030;13.812;2023-11-22T07:51:54;17.95;;;12.63;;
21729;SDS011;11027;51.030;13.812;2023-11-22T07:54:21;18.55;;;12.45;;
21729;SDS011;11027;51.030;13.812;2023-11-22T07:56:50;20.42;;;12.57;;
21729;SDS011;11027;51.030;13.812;2023-11-22T07:59:17;21.05;;;13.40;;
21729;SDS011;11027;51.030;13.812;2023-11-22T08:01:42;21.05;;;12.95;;
21729;SDS011;11027;51.030;13.812;2023-11-22T08:04:13;19.92;;;12.07;;
21729;SDS011;11027;51.030;13.812;2023-11-22T08:06:38;21.08;;;13.38;;
21729;SDS011;11027;51.030;13.812;2023-11-22T08:09:03;20.98;;;13.07;;
21729;SDS011;11027;51.030;13.812;2023-11-22T08:11:30;21.58;;;13.48;;
21729;SDS011;11027;51.030;13.812;2023-11-22T08:13:56;22.65;;;14.02;;
21729;SDS011;11027;51.030;13.812;2023-11-22T08:16:24;20.60;;;13.38;;
21729;SDS011;11027;51.030;13.812;2023-11-22T08:18:52;18.17;;;13.20;;
21729;SDS011;11027;51.030;13.812;2023-11-22T08:21:18;20.13;;;13.07;;
21729;SDS011;11027;51.030;13.812;2023-11-22T08:23:43;22.33;;;14.60;;
21729;SDS011;11027;51.030;13.812;2023-11-22T08:26:11;24.13;;;13.90;;
21729;SDS011;11027;51.030;13.812;2023-11-22T08:28:37;21.10;;;13.63;;
21729;SDS011;11027;51.030;13.812;2023-11-22T08:31:02;22.67;;;14.43;;
21729;SDS011;11027;51.030;13.812;2023-11-22T08:33:29;23.77;;;13.88;;
21729;SDS011;11027;51.030;13.812;2023-11-22T08:35:54;21.65;;;14.05;;
21729;SDS011;11027;51.030;13.812;2023-11-22T08:38:23;20.48;;;13.25;;
21729;SDS011;11027;51.030;13.812;2023-11-22T08:40:50;19.75;;;13.23;;
21729;SDS011;11027;51.030;13.812;2023-11-22T08:43:15;21.52;;;13.73;;
21729;SDS011;11027;51.030;13.812;2023-11-22T08:45:41;22.30;;;14.05;;
21729;SDS011;11027;51.030;13.812;2023-11-22T08:48:09;21.15;;;13.25;;
21729;SDS011;11027;51.030;13.812;2023-11-22T08:50:34;21.08;;;13.88;;
21729;SDS011;11027;51.030;13.812;2023-11-22T08:52:59;22.05;;;13.38;;
21729;SDS011;11027;51.030;13.812;2023-11-22T08:55:25;22.33;;;14.32;;
21729;SDS011;11027;51.030;13.812;2023-11-22T08:57:51;21.15;;;13.38;;
21729;SDS011;11027;51.030;13.812;2023-11-22T09:00:16;22.08;;;13.93;;
21729;SDS011;11027;51.030;13.812;2023-11-22T09:02:47;20.98;;;13.45;;
21729;SDS011;11027;51.030;13.812;2023-11-22T09:05:13;21.40;;;13.52;;
21729;SDS011;11027;51.030;13.812;2023-11-22T09:07:39;19.52;;;13.43;;
21729;SDS011;11027;51.030;13.812;2023-11-22T09:10:04;22.88;;;14.02;;
21729;SDS011;11027;51.030;13.812;2023-11-22T09:12:37;18.92;;;12.60;;
21729;SDS011;11027;51.030;13.812;2023-11-22T09:15:07;20.55;;;13.50;;
21729;SDS011;11027;51.030;13.812;2023-11-22T09:17:35;19.70;;;12.38;;
21729;SDS011;11027;51.030;13.812;2023-11-22T09:20:01;20.58;;;12.60;;
21729;SDS011;11027;51.030;13.812;2023-11-22T09:22:28;21.73;;;12.55;;
21729;SDS011;11027;51.030;13.812;2023-11-22T09:24:53;19.98;;;11.75;;
21729;SDS011;11027;51.030;13.812;2023-11-22T09:27:18;21.73;;;12.85;;
21729;SDS011;11027;51.030;13.812;2023-11-22T09:29:45;17.92;;;12.15;;
21729;SDS011;11027;51.030;13.812;2023-11-22T09:32:10;21.20;;;12.55;;
21729;SDS011;11027;51.030;13.812;2023-11-22T09:34:37;17.05;;;10.45;;
21729;SDS011;11027;51.030;13.812;2023-11-22T09:37:03;17.42;;;11.43;;
21729;SDS011;11027;51.030;13.812;2023-11-22T09:39:28;18.15;;;11.57;;
21729;SDS011;11027;51.030;13.812;2023-11-22T09:41:54;17.42;;;10.95;;
21729;SDS011;11027;51.030;13.812;2023-11-22T09:44:20;14.77;;;10.50;;
21729;SDS011;11027;51.030;13.812;2023-11-22T09:46:46;19.10;;;10.68;;
21729;SDS011;11027;51.030;13.812;2023-11-22T09:49:14;19.58;;;10.55;;
21729;SDS011;11027;51.030;13.812;2023-11-22T09:51:49;16.85;;;10.45;;
21729;SDS011;11027;51.030;13.812;2023-11-22T09:54:16;15.65;;;10.13;;
21729;SDS011;11027;51.030;13.812;2023-11-22T09:56:43;16.95;;;10.57;;
21729;SDS011;11027;51.030;13.812;2023-11-22T09:59:15;16.67;;;10.07;;
21729;SDS011;11027;51.030;13.812;2023-11-22T10:01:43;15.68;;;10.02;;
21729;SDS011;11027;51.030;13.812;2023-11-22T10:04:09;15.18;;;9.68;;
21729;SDS011;11027;51.030;13.812;2023-11-22T10:06:34;17.33;;;9.82;;
21729;SDS011;11027;51.030;13.812;2023-11-22T10:09:03;13.88;;;9.35;;
21729;SDS011;11027;51.030;13.812;2023-11-22T10:11:34;14.48;;;9.27;;
21729;SDS011;11027;51.030;13.812;2023-11-22T10:14:03;18.83;;;10.60;;
21729;SDS011;11027;51.030;13.812;2023-11-22T10:16:29;14.65;;;9.50;;
21729;SDS011;11027;51.030;13.812;2023-11-22T10:18:55;14.73;;;9.00;;
21729;SDS011;11027;51.030;13.812;2023-11-22T10:23:56;14.60;;;10.00;;
21729;SDS011;11027;51.030;13.812;2023-11-22T10:26:28;14.45;;;9.30;;
21729;SDS011;11027;51.030;13.812;2023-11-22T10:28:54;13.57;;;8.93;;
21729;SDS011;11027;51.030;13.812;2023-11-22T10:31:21;14.48;;;9.00;;
21729;SDS011;11027;51.030;13.812;2023-11-22T10:33:47;16.50;;;8.85;;
21729;SDS011;11027;51.030;13.812;2023-11-22T10:36:13;14.05;;;9.27;;
21729;SDS011;11027;51.030;13.812;2023-11-22T10:38:40;14.57;;;8.65;;
21729;SDS011;11027;51.030;13.812;2023-11-22T10:41:09;13.68;;;8.45;;
21729;SDS011;11027;51.030;13.812;2023-11-22T10:43:35;12.23;;;8.15;;
21729;SDS011;11027;51.030;13.812;2023-11-22T10:46:02;13.77;;;8.68;;
21729;SDS011;11027;51.030;13.812;2023-11-22T10:48:29;13.57;;;8.65;;
21729;SDS011;11027;51.030;13.812;2023-11-22T10:50:56;12.95;;;8.50;;
21729;SDS011;11027;51.030;13.812;2023-11-22T10:53:22;10.82;;;7.20;;
21729;SDS011;11027;51.030;13.812;2023-11-22T10:55:59;12.73;;;8.05;;
21729;SDS011;11027;51.030;13.812;2023-11-22T10:58:31;10.93;;;7.07;;
21729;SDS011;11027;51.030;13.812;2023-11-22T11:00:58;11.70;;;7.63;;
21729;SDS011;11027;51.030;13.812;2023-11-22T11:03:25;11.95;;;8.02;;
21729;SDS011;11027;51.030;13.812;2023-11-22T11:05:58;13.13;;;8.77;;
21729;SDS011;11027;51.030;13.812;2023-11-22T11:08:29;12.50;;;8.48;;
21729;SDS011;11027;51.030;13.812;2023-11-22T11:10:56;11.43;;;7.95;;
21729;SDS011;11027;51.030;13.812;2023-11-22T11:13:23;14.02;;;7.75;;
21729;SDS011;11027;51.030;13.812;2023-11-22T11:15:49;13.13;;;8.15;;
21729;SDS011;11027;51.030;13.812;2023-11-22T11:18:15;13.13;;;8.48;;
21729;SDS011;11027;51.030;13.812;2023-11-22T11:23:14;14.15;;;8.65;;
21729;SDS011;11027;51.030;13.812;2023-11-22T11:25:41;12.82;;;8.43;;
21729;SDS011;11027;51.030;13.812;2023-11-22T11:28:09;11.48;;;7.65;;
21729;SDS011;11027;51.030;13.812;2023-11-22T11:30:43;11.43;;;7.75;;
21729;SDS011;11027;51.030;13.812;2023-11-22T11:33:14;14.32;;;8.35;;
21729;SDS011;11027;51.030;13.812;2023-11-22T11:35:52;13.02;;;8.32;;
21729;SDS011;11027;51.030;13.812;2023-11-22T11:38:21;15.95;;;8.50;;
21729;SDS011;11027;51.030;13.812;2023-11-22T11:40:46;14.38;;;8.00;;
21729;SDS011;11027;51.030;13.812;2023-11-22T11:43:13;11.10;;;7.80;;
21729;SDS011;11027;51.030;13.812;2023-11-22T11:45:39;11.10;;;7.03;;
21729;SDS011;11027;51.030;13.812;2023-11-22T11:48:10;12.27;;;7.50;;
21729;SDS011;11027;51.030;13.812;2023-11-22T11:50:35;11.63;;;7.05;;
21729;SDS011;11027;51.030;13.812;2023-11-22T11:53:01;14.98;;;7.03;;
21729;SDS011;11027;51.030;13.812;2023-11-22T11:55:26;10.90;;;7.25;;
21729;SDS011;11027;51.030;13.812;2023-11-22T11:57:55;11.02;;;7.15;;
21729;SDS011;11027;51.030;13.812;2023-11-22T12:00:21;11.57;;;7.30;;
21729;SDS011;11027;51.030;13.812;2023-11-22T12:02:49;12.27;;;8.65;;
21729;SDS011;11027;51.030;13.812;2023-11-22T12:05:14;15.30;;;8.73;;
21729;SDS011;11027;51.030;13.812;2023-11-22T12:07:39;11.05;;;6.93;;
21729;SDS011;11027;51.030;13.812;2023-11-22T12:10:05;11.98;;;7.32;;
21729;SDS011;11027;51.030;13.812;2023-11-22T12:12:31;9.75;;;6.78;;
21729;SDS011;11027;51.030;13.812;2023-11-22T12:14:57;9.38;;;7.10;;
21729;SDS011;11027;51.030;13.812;2023-11-22T12:17:22;12.32;;;7.18;;
21729;SDS011;11027;51.030;13.812;2023-11-22T12:19:48;10.70;;;7.25;;
21729;SDS011;11027;51.030;13.812;2023-11-22T12:22:13;9.68;;;6.95;;
21729;SDS011;11027;51.030;13.812;2023-11-22T12:24:41;11.90;;;6.95;;
21729;SDS011;11027;51.030;13.812;2023-11-22T12:27:09;9.63;;;6.32;;
21729;SDS011;11027;51.030;13.812;2023-11-22T12:29:39;10.05;;;6.65;;
21729;SDS011;11027;51.030;13.812;2023-11-22T12:32:06;9.95;;;7.10;;
21729;SDS011;11027;51.030;13.812;2023-11-22T12:34:32;13.15;;;7.97;;
21729;SDS011;11027;51.030;13.812;2023-11-22T12:36:58;12.05;;;7.32;;
21729;SDS011;11027;51.030;13.812;2023-11-22T12:39:24;8.95;;;6.50;;
21729;SDS011;11027;51.030;13.812;2023-11-22T12:41:52;10.38;;;7.38;;
21729;SDS011;11027;51.030;13.812;2023-11-22T12:44:18;12.63;;;8.48;;
21729;SDS011;11027;51.030;13.812;2023-11-22T12:49:21;13.60;;;8.65;;
21729;SDS011;11027;51.030;13.812;2023-11-22T12:51:48;11.23;;;7.55;;
21729;SDS011;11027;51.030;13.812;2023-11-22T12:54:17;10.48;;;6.97;;
21729;SDS011;11027;51.030;13.812;2023-11-22T12:56:46;11.60;;;7.47;;
21729;SDS011;11027;51.030;13.812;2023-11-22T12:59:15;11.45;;;7.20;;
21729;SDS011;11027;51.030;13.812;2023-11-22T13:01:41;9.55;;;7.15;;
21729;SDS011;11027;51.030;13.812;2023-11-22T13:04:06;11.80;;;6.60;;
21729;SDS011;11027;51.030;13.812;2023-11-22T13:06:33;9.05;;;6.10;;
21729;SDS011;11027;51.030;13.812;2023-11-22T13:08:58;8.13;;;6.00;;
21729;SDS011;11027;51.030;13.812;2023-11-22T13:11:23;10.55;;;7.13;;
21729;SDS011;11027;51.030;13.812;2023-11-22T13:13:49;9.20;;;6.43;;
21729;SDS011;11027;51.030;13.812;2023-11-22T13:16:15;10.40;;;6.47;;
21729;SDS011;11027;51.030;13.812;2023-11-22T13:18:41;11.48;;;6.35;;
21729;SDS011;11027;51.030;13.812;2023-11-22T13:21:07;10.38;;;6.45;;
21729;SDS011;11027;51.030;13.812;2023-11-22T13:23:32;11.00;;;7.03;;
21729;SDS011;11027;51.030;13.812;2023-11-22T13:25:58;11.55;;;7.40;;
21729;SDS011;11027;51.030;13.812;2023-11-22T13:28:23;10.43;;;7.05;;
21729;SDS011;11027;51.030;13.812;2023-11-22T13:30:50;11.50;;;6.75;;
21729;SDS011;11027;51.030;13.812;2023-11-22T13:33:15;10.52;;;6.78;;
21729;SDS011;11027;51.030;13.812;2023-11-22T13:35:41;11.27;;;7.05;;
21729;SDS011;11027;51.030;13.812;2023-11-22T13:38:06;10.80;;;7.07;;
21729;SDS011;11027;51.030;13.812;2023-11-22T13:40:37;9.48;;;6.45;;
21729;SDS011;11027;51.030;13.812;2023-11-22T13:43:05;10.15;;;6.93;;
21729;SDS011;11027;51.030;13.812;2023-11-22T13:45:31;10.35;;;6.65;;
21729;SDS011;11027;51.030;13.812;2023-11-22T13:47:56;9.70;;;7.00;;
21729;SDS011;11027;51.030;13.812;2023-11-22T13:50:31;9.52;;;6.70;;
21729;SDS011;11027;51.030;13.812;2023-11-22T13:52:57;9.07;;;6.80;;
21729;SDS011;11027;51.030;13.812;2023-11-22T13:55:23;10.55;;;7.00;;
21729;SDS011;11027;51.030;13.812;2023-11-22T14:00:19;10.93;;;7.50;;
21729;SDS011;11027;51.030;13.812;2023-11-22T14:02:51;11.82;;;7.40;;
21729;SDS011;11027;51.030;13.812;2023-11-22T14:05:20;11.02;;;6.47;;
21729;SDS011;11027;51.030;13.812;2023-11-22T14:07:46;9.68;;;6.38;;
21729;SDS011;11027;51.030;13.812;2023-11-22T14:10:13;11.85;;;7.43;;
21729;SDS011;11027;51.030;13.812;2023-11-22T14:12:41;10.98;;;7.28;;
21729;SDS011;11027;51.030;13.812;2023-11-22T14:15:07;9.38;;;6.75;;
21729;SDS011;11027;51.030;13.812;2023-11-22T14:17:33;10.60;;;6.90;;
21729;SDS011;11027;51.030;13.812;2023-11-22T14:19:58;9.52;;;6.95;;